Time;durP1;ratioP1;P1;durP2;ratioP2;P2;SDS_P1;SDS_P2;PMS_P1;PMS_P2;Temp;Humidity;BMP_temperature;BMP_pressure;BME280_temperature;BME280_humidity;BME280_pressure;Samples;Min_cycle;Max_cycle;Signal;HPM_P1;HPM_P2
2023/10/31 00:00:14;;;;;;;;;;;;;;;7.39;88.83;95484.28;5134322;28;1064;-59
2023/10/31 00:02:39;;;;;;;;;;;;;;;7.60;88.10;95473.59;5134285;28;1032;-59
2023/10/31 00:05:06;;;;;;;;;;;;;;;7.75;87.72;95471.41;5134332;28;968;-59
2023/10/31 00:07:32;;;;;;;;;;;;;;;7.72;87.45;95470.81;5134166;28;1008;-59
2023/10/31 00:09:58;;;;;;;;;;;;;;;7.73;88.11;95460.06;5134535;28;961;-59
2023/10/31 00:12:24;;;;;;;;;;;;;;;7.73;87.88;95459.22;5134384;28;996;-59
2023/10/31 00:14:50;;;;;;;;;;;;;;;7.55;87.62;95461.66;5134388;28;1358;-59
2023/10/31 00:17:16;;;;;;;;;;;;;;;7.51;88.54;95458.47;5134366;28;1917;-59
2023/10/31 00:19:42;;;;;;;;;;;;;;;7.50;88.25;95451.44;5134279;28;979;-59
2023/10/31 00:22:08;;;;;;;;;;;;;;;7.55;88.65;95461.66;5134071;28;1032;-59
2023/10/31 00:24:34;;;;;;;;;;;;;;;7.64;88.70;95455.53;5116143;28;968;-59
2023/10/31 00:26:59;;;;;;;;;;;;;;;7.66;88.42;95460.72;5134371;28;1082;-59
2023/10/31 00:29:25;;;;;;;;;;;;;;;7.62;88.72;95458.34;5115974;28;967;-59
2023/10/31 00:31:51;;;;;;;;;;;;;;;7.50;88.30;95453.28;5134051;28;1091;-59
2023/10/31 00:34:17;;;;;;;;;;;;;;;7.46;88.52;95452.69;5117727;28;1145;-59
2023/10/31 00:36:44;;;;;;;;;;;;;;;7.33;89.46;95450.25;5113582;28;1905;-58
2023/10/31 00:39:10;;;;;;;;;;;;;;;7.44;89.22;95441.34;5113713;28;969;-59
2023/10/31 00:41:36;;;;;;;;;;;;;;;7.36;88.82;95452.66;5113394;28;1036;-59
2023/10/31 00:44:02;;;;;;;;;;;;;;;7.45;89.38;95443.00;5114617;28;1023;-59
2023/10/31 00:46:28;;;;;;;;;;;;;;;7.58;88.31;95442.78;5117220;28;929;-59
2023/10/31 00:48:55;;;;;;;;;;;;;;;7.58;87.63;95434.78;5117531;28;964;-59
2023/10/31 00:51:21;;;;;;;;;;;;;;;7.37;88.93;95432.22;5117314;28;1056;-59
2023/10/31 00:53:47;;;;;;;;;;;;;;;7.45;89.00;95431.53;5117359;28;1271;-59
2023/10/31 00:56:13;;;;;;;;;;;;;;;7.52;88.54;95425.53;5116977;28;1041;-59
2023/10/31 00:58:39;;;;;;;;;;;;;;;7.34;88.67;95422.69;5116907;28;1909;-59
2023/10/31 01:01:05;;;;;;;;;;;;;;;7.22;88.74;95427.25;5116951;28;1052;-59
2023/10/31 01:03:31;;;;;;;;;;;;;;;7.35;89.55;95424.38;5116953;28;980;-59
2023/10/31 01:05:57;;;;;;;;;;;;;;;7.42;89.00;95419.34;5116784;28;1041;-59
2023/10/31 01:08:23;;;;;;;;;;;;;;;7.37;88.56;95419.75;5116768;28;1069;-59
2023/10/31 01:10:49;;;;;;;;;;;;;;;7.15;88.56;95426.13;5116994;28;996;-59
2023/10/31 01:13:15;;;;;;;;;;;;;;;6.95;89.72;95424.34;5116828;28;1025;-59
2023/10/31 01:15:41;;;;;;;;;;;;;;;7.03;89.67;95424.50;5116868;28;964;-59
2023/10/31 01:18:07;;;;;;;;;;;;;;;7.13;89.82;95419.22;5116845;28;1999;-59
2023/10/31 01:20:33;;;;;;;;;;;;;;;7.08;89.42;95418.81;5116574;28;984;-58
2023/10/31 01:22:59;;;;;;;;;;;;;;;6.76;89.55;95411.78;5116837;28;973;-59
2023/10/31 01:25:25;;;;;;;;;;;;;;;6.53;91.48;95406.63;5116461;28;1075;-59
2023/10/31 01:27:50;;;;;;;;;;;;;;;6.64;90.88;95414.53;5116686;28;1043;-59
2023/10/31 01:30:16;;;;;;;;;;;;;;;6.89;89.93;95412.41;5116446;28;988;-59
2023/10/31 01:32:42;;;;;;;;;;;;;;;6.97;89.87;95411.75;5119363;27;1169;-59
2023/10/31 01:35:08;;;;;;;;;;;;;;;6.97;89.23;95407.28;5136870;27;1083;-58
2023/10/31 01:37:34;;;;;;;;;;;;;;;6.90;88.90;95406.09;5136634;27;1906;-58
2023/10/31 01:40:01;;;;;;;;;;;;;;;6.97;88.92;95404.63;5137044;27;985;-59
2023/10/31 01:42:27;;;;;;;;;;;;;;;6.94;89.06;95404.03;5118467;27;1024;-59
2023/10/31 01:44:53;;;;;;;;;;;;;;;6.77;89.12;95403.69;5137068;27;989;-59
2023/10/31 01:47:19;;;;;;;;;;;;;;;6.86;89.07;95409.19;5136571;27;1174;-59
2023/10/31 01:49:44;;;;;;;;;;;;;;;6.81;88.73;95405.09;5136903;27;1044;-59
2023/10/31 01:52:10;;;;;;;;;;;;;;;6.72;88.90;95400.56;5136756;27;973;-59
2023/10/31 01:54:37;;;;;;;;;;;;;;;6.70;88.94;95394.56;5136683;27;1044;-59
2023/10/31 01:57:04;;;;;;;;;;;;;;;6.63;89.12;95398.69;5123557;27;1910;-59
2023/10/31 01:59:31;;;;;;;;;;;;;;;6.58;89.00;95393.78;5115731;28;1258;-59
2023/10/31 02:01:57;;;;;;;;;;;;;;;6.55;89.71;95393.22;5115922;28;1028;-59
2023/10/31 02:04:24;;;;;;;;;;;;;;;6.54;89.54;95396.81;5116058;28;1023;-59
2023/10/31 02:06:50;;;;;;;;;;;;;;;6.49;89.61;95396.34;5115687;28;1048;-59
2023/10/31 02:09:16;;;;;;;;;;;;;;;6.57;89.28;95397.41;5115642;28;1036;-59
2023/10/31 02:11:42;;;;;;;;;;;;;;;6.50;88.73;95392.75;5115950;28;953;-58
2023/10/31 02:14:08;;;;;;;;;;;;;;;6.54;89.32;95399.47;5115596;28;1044;-59
2023/10/31 02:16:34;;;;;;;;;;;;;;;6.50;89.58;95392.75;5115572;28;965;-59
2023/10/31 02:19:00;;;;;;;;;;;;;;;6.40;91.07;95382.91;5115463;28;1979;-59
2023/10/31 02:21:27;;;;;;;;;;;;;;;6.50;91.09;95384.78;5097197;28;1107;-59
2023/10/31 02:24:01;;;;;;;;;;;;;;;6.64;89.55;95395.91;5115435;28;1083;-59
2023/10/31 02:26:30;;;;;;;;;;;;;;;6.72;89.63;95391.78;5115405;28;1011;-58
2023/10/31 02:28:57;;;;;;;;;;;;;;;6.63;89.72;95380.09;5097258;28;963;-59
2023/10/31 02:31:23;;;;;;;;;;;;;;;6.33;89.21;95379.06;5115112;28;1032;-59
2023/10/31 02:33:48;;;;;;;;;;;;;;;6.23;90.70;95379.00;5115088;28;1193;-59
2023/10/31 02:36:14;;;;;;;;;;;;;;;6.37;91.14;95387.63;5115356;28;976;-59
2023/10/31 02:38:40;;;;;;;;;;;;;;;6.40;90.54;95377.59;5115226;28;1901;-59
2023/10/31 02:41:06;;;;;;;;;;;;;;;6.37;89.86;95375.19;5115009;28;1106;-59
2023/10/31 02:43:33;;;;;;;;;;;;;;;6.18;90.47;95372.41;5115049;27;2938;-59
2023/10/31 02:45:59;;;;;;;;;;;;;;;6.12;91.32;95372.91;5135809;27;1048;-59
2023/10/31 02:48:26;;;;;;;;;;;;;;;6.35;91.83;95379.78;5135322;27;1028;-62
2023/10/31 02:50:52;;;;;;;;;;;;;;;6.43;90.75;95380.00;5117490;27;1007;-61
2023/10/31 02:53:18;;;;;;;;;;;;;;;6.46;90.69;95373.56;5117417;27;1023;-60
2023/10/31 02:55:44;;;;;;;;;;;;;;;6.33;90.24;95378.22;5117274;27;961;-60
2023/10/31 02:58:10;;;;;;;;;;;;;;;6.31;89.77;95378.34;5129373;27;1914;-60
2023/10/31 03:00:37;;;;;;;;;;;;;;;6.28;89.64;95383.09;5114973;28;965;-61
2023/10/31 03:03:03;;;;;;;;;;;;;;;6.20;90.22;95387.25;5114606;28;968;-61
2023/10/31 03:05:29;;;;;;;;;;;;;;;6.14;90.40;95378.94;5114738;28;1032;-61
2023/10/31 03:07:55;;;;;;;;;;;;;;;6.14;90.58;95374.47;5113983;28;1041;-61
2023/10/31 03:10:21;;;;;;;;;;;;;;;6.12;90.08;95380.88;5114379;28;1064;-60
2023/10/31 03:12:47;;;;;;;;;;;;;;;6.28;90.07;95386.59;5114595;28;1041;-60
2023/10/31 03:15:13;;;;;;;;;;;;;;;6.31;89.24;95381.00;5096333;28;976;-61
2023/10/31 03:17:39;;;;;;;;;;;;;;;5.99;88.40;95379.22;5114515;28;1906;-60
2023/10/31 03:20:06;;;;;;;;;;;;;;;5.87;89.47;95386.38;5114603;28;1064;-60
2023/10/31 03:22:32;;;;;;;;;;;;;;;5.91;90.00;95378.16;5114114;28;1100;-60
2023/10/31 03:24:58;;;;;;;;;;;;;;;5.84;89.97;95378.69;5114421;28;973;-60
2023/10/31 03:27:23;;;;;;;;;;;;;;;5.86;90.36;95367.91;5114269;28;966;-60
2023/10/31 03:29:49;;;;;;;;;;;;;;;5.65;92.22;95362.56;5114179;28;957;-61
2023/10/31 03:32:15;;;;;;;;;;;;;;;5.85;91.36;95371.56;5113980;28;1048;-61
2023/10/31 03:34:41;;;;;;;;;;;;;;;6.03;90.74;95372.72;5113967;28;1233;-60
2023/10/31 03:37:07;;;;;;;;;;;;;;;5.88;89.49;95368.66;5114248;28;1917;-60
2023/10/31 03:39:33;;;;;;;;;;;;;;;5.93;90.12;95363.78;5114175;28;1122;-60
2023/10/31 03:42:00;;;;;;;;;;;;;;;5.81;90.62;95367.47;5113997;28;1103;-60
2023/10/31 03:44:25;;;;;;;;;;;;;;;5.99;90.68;95360.66;5113844;28;1083;-61
2023/10/31 03:46:51;;;;;;;;;;;;;;;6.09;90.80;95366.06;5113845;28;929;-61
2023/10/31 03:49:17;;;;;;;;;;;;;;;6.24;90.22;95359.47;5114010;28;1037;-61
2023/10/31 03:51:43;;;;;;;;;;;;;;;5.98;87.57;95364.28;5114036;28;1043;-61
2023/10/31 03:54:10;;;;;;;;;;;;;;;5.74;90.10;95366.28;5114001;28;962;-60
2023/10/31 03:56:40;;;;;;;;;;;;;;;5.59;91.67;95355.97;5113918;28;977;-62
2023/10/31 03:59:06;;;;;;;;;;;;;;;5.61;92.72;95351.38;5127115;28;1910;-62
2023/10/31 04:01:32;;;;;;;;;;;;;;;5.50;94.10;95346.09;5134256;28;953;-62
2023/10/31 04:03:58;;;;;;;;;;;;;;;5.90;92.65;95356.09;5134255;28;1099;-61
2023/10/31 04:06:24;;;;;;;;;;;;;;;6.15;91.36;95352.28;5134101;28;1115;-62
2023/10/31 04:08:50;;;;;;;;;;;;;;;6.06;90.97;95353.03;5134492;28;957;-61
2023/10/31 04:11:16;;;;;;;;;;;;;;;6.15;91.14;95359.41;5134118;28;1028;-62
2023/10/31 04:13:42;;;;;;;;;;;;;;;5.95;91.08;95347.75;5134458;28;1037;-64
2023/10/31 04:16:07;;;;;;;;;;;;;;;5.60;90.85;95360.31;5134196;28;1023;-61
2023/10/31 04:18:33;;;;;;;;;;;;;;;5.63;91.69;95353.91;5134169;27;1902;-60
2023/10/31 04:20:59;;;;;;;;;;;;;;;5.82;92.38;95358.53;5138624;27;992;-60
2023/10/31 04:23:25;;;;;;;;;;;;;;;5.75;91.96;95360.88;5138163;27;1080;-60
2023/10/31 04:25:52;;;;;;;;;;;;;;;5.70;90.49;95354.25;5138193;27;1133;-60
2023/10/31 04:28:18;;;;;;;;;;;;;;;5.48;92.34;95356.84;5138469;27;961;-60
2023/10/31 04:30:44;;;;;;;;;;;;;;;5.59;91.65;95355.13;5138110;27;1079;-60
2023/10/31 04:33:10;;;;;;;;;;;;;;;5.59;91.80;95353.31;5137884;27;1114;-60
2023/10/31 04:35:36;;;;;;;;;;;;;;;5.50;91.77;95343.44;5138175;27;1035;-59
2023/10/31 04:38:02;;;;;;;;;;;;;;;5.30;91.67;95344.25;5137887;27;1905;-59
2023/10/31 04:40:28;;;;;;;;;;;;;;;5.37;91.73;95348.06;5137805;27;1020;-60
2023/10/31 04:42:54;;;;;;;;;;;;;;;5.58;91.93;95362.25;5138193;27;948;-60
2023/10/31 04:45:20;;;;;;;;;;;;;;;5.64;91.05;95337.88;5137812;27;1054;-59
2023/10/31 04:47:47;;;;;;;;;;;;;;;5.33;89.78;95346.63;5137710;27;1106;-59
2023/10/31 04:50:13;;;;;;;;;;;;;;;5.26;90.50;95349.78;5137811;27;1020;-60
2023/10/31 04:52:39;;;;;;;;;;;;;;;5.60;91.18;95343.56;5137849;27;1035;-60
2023/10/31 04:55:05;;;;;;;;;;;;;;;5.85;89.93;95355.63;5119737;27;999;-59
2023/10/31 04:57:31;;;;;;;;;;;;;;;5.40;90.87;95348.66;5137321;27;1982;-64
2023/10/31 04:59:58;;;;;;;;;;;;;;;5.16;91.87;95356.81;5137639;27;1026;-61
2023/10/31 05:02:25;;;;;;;;;;;;;;;5.48;91.70;95356.84;5137409;27;1072;-60
2023/10/31 05:04:51;;;;;;;;;;;;;;;5.58;91.31;95353.47;5137674;27;1003;-61
2023/10/31 05:07:17;;;;;;;;;;;;;;;5.68;91.65;95357.03;5137454;27;1066;-61
2023/10/31 05:09:43;;;;;;;;;;;;;;;5.73;90.52;95348.69;5137414;27;1024;-61
2023/10/31 05:12:09;;;;;;;;;;;;;;;5.63;89.36;95360.06;5119203;27;1196;-61
2023/10/31 05:14:35;;;;;;;;;;;;;;;5.50;88.48;95355.88;5137222;27;1266;-60
2023/10/31 05:17:01;;;;;;;;;;;;;;;5.20;91.44;95362.72;5137129;27;1906;-60
2023/10/31 05:19:27;;;;;;;;;;;;;;;5.31;92.65;95361.81;5137138;27;913;-59
2023/10/31 05:21:53;;;;;;;;;;;;;;;5.60;91.43;95362.97;5119165;27;1614;-59
2023/10/31 05:24:19;;;;;;;;;;;;;;;5.62;90.73;95355.72;5118941;27;1229;-59
2023/10/31 05:26:46;;;;;;;;;;;;;;;5.25;90.72;95366.69;5137200;27;1041;-59
2023/10/31 05:29:12;;;;;;;;;;;;;;;5.38;91.05;95355.91;5118614;27;1024;-60
2023/10/31 05:31:38;;;;;;;;;;;;;;;5.55;91.87;95365.13;5118674;27;1040;-60
2023/10/31 05:34:04;;;;;;;;;;;;;;;5.68;91.73;95375.59;5122940;27;1208;-59
2023/10/31 05:36:30;;;;;;;;;;;;;;;5.83;91.26;95379.63;5116463;28;1027;-59
2023/10/31 05:38:56;;;;;;;;;;;;;;;5.80;91.17;95371.09;5116499;28;1909;-59
2023/10/31 05:41:22;;;;;;;;;;;;;;;5.69;90.82;95377.25;5116417;28;999;-59
2023/10/31 05:43:48;;;;;;;;;;;;;;;5.97;91.18;95378.53;5116142;28;1083;-62
2023/10/31 05:46:14;;;;;;;;;;;;;;;6.26;90.80;95388.56;5116000;28;953;-61
2023/10/31 05:48:42;;;;;;;;;;;;;;;6.84;88.91;95402.16;5116115;28;1112;-62
2023/10/31 05:51:14;;;;;;;;;;;;;;;8.16;83.23;95402.94;5098255;28;1007;-62
2023/10/31 05:53:41;;;;;;;;;;;;;;;10.93;67.76;95405.63;5116001;28;1025;-62
2023/10/31 05:56:08;;;;;;;;;;;;;;;13.04;59.53;95414.59;5116024;28;1031;-62
2023/10/31 05:58:34;;;;;;;;;;;;;;;14.69;55.68;95420.16;5115680;28;1910;-62
2023/10/31 06:01:00;;;;;;;;;;;;;;;15.48;51.84;95414.38;5116133;28;1080;-62
2023/10/31 06:03:26;;;;;;;;;;;;;;;16.00;50.36;95408.88;5115931;28;1028;-61
2023/10/31 06:05:52;;;;;;;;;;;;;;;16.90;48.27;95420.28;5115751;28;999;-61
2023/10/31 06:08:18;;;;;;;;;;;;;;;17.65;46.26;95434.16;5097715;28;1020;-61
2023/10/31 06:10:44;;;;;;;;;;;;;;;17.18;46.31;95414.06;5115616;28;981;-61
2023/10/31 06:13:10;;;;;;;;;;;;;;;17.83;45.55;95414.72;5115526;28;1909;-60
2023/10/31 06:15:36;;;;;;;;;;;;;;;18.83;43.80;95425.94;5115451;28;1274;-60
2023/10/31 06:18:03;;;;;;;;;;;;;;;19.51;42.26;95433.88;5115700;28;1972;-60
2023/10/31 06:20:29;;;;;;;;;;;;;;;19.73;41.79;95438.28;5115426;28;1031;-60
2023/10/31 06:22:55;;;;;;;;;;;;;;;19.57;42.16;95425.97;5115330;28;1095;-60
2023/10/31 06:25:21;;;;;;;;;;;;;;;20.31;41.27;95432.06;5115149;28;1087;-61
2023/10/31 06:27:47;;;;;;;;;;;;;;;20.58;39.96;95449.94;5115564;28;1074;-61
2023/10/31 06:30:13;;;;;;;;;;;;;;;21.18;39.31;95448.75;5115027;28;968;-61
2023/10/31 06:32:40;;;;;;;;;;;;;;;21.88;37.92;95454.06;5117473;27;1205;-61
2023/10/31 06:35:06;;;;;;;;;;;;;;;21.84;37.16;95463.72;5135847;27;1011;-60
2023/10/31 06:37:32;;;;;;;;;;;;;;;21.56;37.53;95448.69;5135782;27;1878;-60
2023/10/31 06:39:59;;;;;;;;;;;;;;;21.90;37.83;95451.94;5117419;27;1040;-61
2023/10/31 06:42:25;;;;;;;;;;;;;;;22.20;37.31;95445.78;5134631;27;1027;-61
2023/10/31 06:44:50;;;;;;;;;;;;;;;22.44;36.21;95456.81;5117144;27;1009;-61
2023/10/31 06:47:17;;;;;;;;;;;;;;;22.73;35.43;95464.22;5135546;27;999;-61
2023/10/31 06:49:43;;;;;;;;;;;;;;;23.04;34.94;95456.91;5135358;27;1059;-61
2023/10/31 06:52:09;;;;;;;;;;;;;;;23.00;34.78;95464.69;5135445;27;1054;-61
2023/10/31 06:54:35;;;;;;;;;;;;;;;23.70;34.00;95452.31;5135290;27;1007;-60
2023/10/31 06:57:04;;;;;;;;;;;;;;;23.51;34.23;95439.81;5135087;27;1913;-60
2023/10/31 06:59:29;;;;;;;;;;;;;;;22.05;36.63;95428.97;5134951;27;1223;-60
2023/10/31 07:01:55;;;;;;;;;;;;;;;21.44;37.75;95418.66;5135040;27;1110;-60
2023/10/31 07:04:21;;;;;;;;;;;;;;;20.22;40.30;95399.75;5135251;27;1127;-60
2023/10/31 07:06:48;;;;;;;;;;;;;;;19.02;43.57;95386.38;5135001;27;1036;-60
2023/10/31 07:09:14;;;;;;;;;;;;;;;17.73;46.45;95384.47;5134921;27;1036;-60
2023/10/31 07:11:40;;;;;;;;;;;;;;;16.53;49.92;95368.19;5135017;27;1052;-59
2023/10/31 07:14:06;;;;;;;;;;;;;;;16.05;52.39;95358.94;5134923;27;1032;-60
2023/10/31 07:16:32;;;;;;;;;;;;;;;15.38;54.76;95350.81;5134752;27;1011;-59
2023/10/31 07:18:58;;;;;;;;;;;;;;;15.06;57.47;95345.78;5134775;27;1990;-59
2023/10/31 07:21:26;;;;;;;;;;;;;;;14.93;58.23;95355.34;5134675;27;1107;-59
2023/10/31 07:23:52;;;;;;;;;;;;;;;14.83;59.90;95338.59;5134925;27;999;-59
2023/10/31 07:26:18;;;;;;;;;;;;;;;14.50;60.50;95336.19;5134652;27;1103;-59
2023/10/31 07:28:44;;;;;;;;;;;;;;;14.19;63.24;95331.72;5116586;27;1025;-59
2023/10/31 07:31:10;;;;;;;;;;;;;;;14.27;63.41;95335.38;5134982;27;1031;-59
2023/10/31 07:33:36;;;;;;;;;;;;;;;14.43;63.70;95335.22;5124522;27;1149;-59
2023/10/31 07:36:02;;;;;;;;;;;;;;;14.73;62.38;95348.81;5114321;28;956;-59
2023/10/31 07:38:28;;;;;;;;;;;;;;;14.74;63.43;95351.31;5113937;28;1910;-59
2023/10/31 07:40:54;;;;;;;;;;;;;;;14.32;65.38;95344.53;5114290;28;1105;-60
2023/10/31 07:43:20;;;;;;;;;;;;;;;14.66;64.12;95356.75;5120079;27;2540;-59
2023/10/31 07:45:46;;;;;;;;;;;;;;;14.73;63.31;95352.31;5099611;27;1787;-59
2023/10/31 07:48:12;;;;;;;;;;;;;;;14.74;62.75;95345.06;5134511;27;1052;-59
2023/10/31 07:50:38;;;;;;;;;;;;;;;14.62;64.11;95342.81;5116182;27;1031;-59
2023/10/31 07:53:04;;;;;;;;;;;;;;;14.66;64.58;95340.59;5134339;27;1121;-60
2023/10/31 07:55:30;;;;;;;;;;;;;;;14.47;64.97;95341.91;5134579;27;1048;-59
2023/10/31 07:57:57;;;;;;;;;;;;;;;14.52;65.99;95331.44;5130529;27;1984;-59
2023/10/31 08:00:23;;;;;;;;;;;;;;;14.43;65.87;95337.91;5094218;28;2461;-59
2023/10/31 08:02:49;;;;;;;;;;;;;;;14.56;66.86;95330.06;5113905;28;1040;-59
2023/10/31 08:05:15;;;;;;;;;;;;;;;14.99;63.15;95330.38;5113643;28;1083;-59
2023/10/31 08:07:41;;;;;;;;;;;;;;;15.16;63.34;95317.56;5113851;28;1181;-59
2023/10/31 08:10:07;;;;;;;;;;;;;;;15.19;63.68;95311.78;5114002;28;1003;-59
2023/10/31 08:12:33;;;;;;;;;;;;;;;15.36;63.32;95312.44;5113488;28;1122;-59
2023/10/31 08:14:59;;;;;;;;;;;;;;;15.39;63.59;95314.78;5113874;28;1008;-59
2023/10/31 08:17:26;;;;;;;;;;;;;;;15.38;63.48;95307.69;5113445;28;1914;-59
2023/10/31 08:19:52;;;;;;;;;;;;;;;15.34;63.73;95300.19;5095787;28;984;-59
2023/10/31 08:22:18;;;;;;;;;;;;;;;15.52;64.24;95291.72;5113461;28;1040;-59
2023/10/31 08:24:44;;;;;;;;;;;;;;;15.48;63.35;95290.41;5095442;28;1045;-59
2023/10/31 08:27:11;;;;;;;;;;;;;;;15.54;61.97;95281.59;5113696;28;1045;-59
2023/10/31 08:29:37;;;;;;;;;;;;;;;15.87;62.68;95278.47;5113489;28;1076;-59
2023/10/31 08:32:03;;;;;;;;;;;;;;;16.20;60.83;95274.25;5095431;28;1085;-59
2023/10/31 08:34:29;;;;;;;;;;;;;;;16.48;61.79;95272.63;5113498;28;1210;-59
2023/10/31 08:36:57;;;;;;;;;;;;;;;16.61;58.73;95278.13;5113631;28;988;-59
2023/10/31 08:39:23;;;;;;;;;;;;;;;16.88;57.21;95271.09;5081501;28;2696;-59
2023/10/31 08:41:50;;;;;;;;;;;;;;;17.19;56.97;95267.16;5103702;28;2500;-59
2023/10/31 08:44:16;;;;;;;;;;;;;;;17.21;56.48;95251.56;5113277;28;1343;-59
2023/10/31 08:46:42;;;;;;;;;;;;;;;17.37;55.34;95256.63;5113298;28;1111;-59
2023/10/31 08:49:08;;;;;;;;;;;;;;;17.53;54.32;95246.53;5113584;28;1056;-59
2023/10/31 08:51:34;;;;;;;;;;;;;;;17.61;53.21;95245.50;5113313;28;950;-59
2023/10/31 08:54:00;;;;;;;;;;;;;;;17.83;54.29;95240.78;5113250;28;1004;-59
2023/10/31 08:56:27;;;;;;;;;;;;;;;17.98;53.98;95236.06;5111937;28;2820;-59
2023/10/31 08:58:53;;;;;;;;;;;;;;;17.96;53.99;95235.44;5124718;28;1934;-58
2023/10/31 09:01:19;;;;;;;;;;;;;;;18.21;52.89;95240.25;5115798;28;988;-59
2023/10/31 09:03:45;;;;;;;;;;;;;;;18.42;52.38;95233.81;5134033;28;996;-59
2023/10/31 09:06:11;;;;;;;;;;;;;;;18.57;53.51;95220.06;5136552;27;984;-59
2023/10/31 09:08:38;;;;;;;;;;;;;;;18.67;52.69;95220.50;5137471;27;996;-59
2023/10/31 09:11:05;;;;;;;;;;;;;;;18.64;52.96;95216.31;5137349;27;1041;-59
2023/10/31 09:13:31;;;;;;;;;;;;;;;18.73;51.25;95209.63;5137054;27;1020;-59
2023/10/31 09:16:00;;;;;;;;;;;;;;;18.91;52.32;95197.34;5137232;27;1087;-59
2023/10/31 09:18:27;;;;;;;;;;;;;;;18.86;51.40;95200.69;5137372;27;1986;-59
2023/10/31 09:20:53;;;;;;;;;;;;;;;18.86;52.10;95192.56;5137283;27;1215;-59
2023/10/31 09:23:19;;;;;;;;;;;;;;;19.01;52.06;95180.63;5119002;27;1019;-59
2023/10/31 09:25:46;;;;;;;;;;;;;;;19.22;49.84;95188.50;5137066;27;957;-59
2023/10/31 09:28:12;;;;;;;;;;;;;;;19.53;50.51;95183.38;5136938;27;1098;-59
2023/10/31 09:30:38;;;;;;;;;;;;;;;19.58;51.90;95162.69;5136939;27;1103;-59
2023/10/31 09:33:04;;;;;;;;;;;;;;;19.08;50.47;95173.34;5118725;27;1205;-59
2023/10/31 09:35:30;;;;;;;;;;;;;;;18.97;52.00;95164.00;5136979;27;983;-59
2023/10/31 09:37:56;;;;;;;;;;;;;;;18.92;52.70;95153.78;5136826;27;1921;-58
2023/10/31 09:40:22;;;;;;;;;;;;;;;19.00;51.12;95146.47;5118443;27;1004;-59
2023/10/31 09:42:49;;;;;;;;;;;;;;;19.13;51.36;95142.91;5136796;27;1063;-59
2023/10/31 09:45:15;;;;;;;;;;;;;;;19.23;51.65;95138.66;5136823;27;1036;-58
2023/10/31 09:47:44;;;;;;;;;;;;;;;19.49;52.19;95136.88;5136726;27;1032;-59
2023/10/31 09:50:11;;;;;;;;;;;;;;;19.56;50.31;95142.25;5136757;27;1064;-60
2023/10/31 09:52:38;;;;;;;;;;;;;;;19.50;49.77;95133.97;5118388;27;1040;-59
2023/10/31 09:55:05;;;;;;;;;;;;;;;19.30;51.24;95119.66;5118282;27;1036;-59
2023/10/31 09:57:31;;;;;;;;;;;;;;;19.34;52.72;95111.94;5136232;27;1996;-61
2023/10/31 09:59:58;;;;;;;;;;;;;;;19.24;51.31;95107.00;5136836;27;979;-60
2023/10/31 10:02:25;;;;;;;;;;;;;;;18.89;51.12;95099.19;5136505;27;965;-60
2023/10/31 10:04:51;;;;;;;;;;;;;;;18.95;53.16;95084.78;5136690;27;1053;-60
2023/10/31 10:07:18;;;;;;;;;;;;;;;19.09;52.50;95083.69;5136638;27;1053;-60
2023/10/31 10:09:44;;;;;;;;;;;;;;;19.19;51.91;95077.81;5136499;27;999;-60
2023/10/31 10:12:13;;;;;;;;;;;;;;;19.17;51.66;95077.19;5136522;27;1031;-59
2023/10/31 10:14:40;;;;;;;;;;;;;;;19.29;51.10;95088.19;5136272;27;1079;-60
2023/10/31 10:17:20;;;;;;;;;;;;;;;19.26;52.08;95075.06;5136053;27;1914;-60
2023/10/31 10:19:46;;;;;;;;;;;;;;;19.22;50.03;95069.25;5136429;27;1063;-60
2023/10/31 10:22:14;;;;;;;;;;;;;;;19.49;48.93;95064.50;5135943;27;1042;-60
2023/10/31 10:24:41;;;;;;;;;;;;;;;19.68;50.12;95059.16;5135989;27;1079;-60
2023/10/31 10:27:08;;;;;;;;;;;;;;;19.62;51.24;95055.44;5135962;27;1091;-60
2023/10/31 10:29:35;;;;;;;;;;;;;;;19.47;51.30;95061.19;5136117;27;969;-60
2023/10/31 10:32:01;;;;;;;;;;;;;;;19.47;50.46;95049.50;5135774;27;1119;-59
2023/10/31 10:34:27;;;;;;;;;;;;;;;19.37;50.70;95049.13;5118512;27;1186;-59
2023/10/31 10:36:55;;;;;;;;;;;;;;;19.31;50.28;95042.72;5115115;28;1063;-59
2023/10/31 10:39:22;;;;;;;;;;;;;;;19.37;51.12;95041.00;5115322;28;1902;-61
2023/10/31 10:41:53;;;;;;;;;;;;;;;19.44;49.40;95045.34;5115031;28;1086;-61
2023/10/31 10:44:25;;;;;;;;;;;;;;;19.39;49.45;95034.34;5115060;28;1029;-61
2023/10/31 10:46:54;;;;;;;;;;;;;;;19.35;50.43;95029.56;5114945;28;1029;-62
2023/10/31 10:49:24;;;;;;;;;;;;;;;19.38;49.83;95027.25;5096663;28;1036;-61
2023/10/31 10:51:58;;;;;;;;;;;;;;;19.41;50.01;95017.84;5115395;28;981;-60
2023/10/31 10:54:27;;;;;;;;;;;;;;;19.35;49.39;95013.28;5096876;28;960;-60
2023/10/31 10:56:56;;;;;;;;;;;;;;;19.38;49.59;95000.13;5122415;27;1059;-60
2023/10/31 10:59:30;;;;;;;;;;;;;;;19.46;48.74;94988.19;5134927;27;1897;-60
2023/10/31 11:01:58;;;;;;;;;;;;;;;19.61;48.07;94985.16;5135097;27;1036;-60
2023/10/31 11:04:24;;;;;;;;;;;;;;;19.74;47.89;94985.06;5135043;27;1032;-60
2023/10/31 11:06:50;;;;;;;;;;;;;;;19.82;47.71;94982.06;5135361;27;1040;-60
2023/10/31 11:09:17;;;;;;;;;;;;;;;19.81;47.42;94982.31;5135066;27;1048;-60
2023/10/31 11:11:48;;;;;;;;;;;;;;;19.81;47.62;94956.00;5135092;27;968;-60
2023/10/31 11:14:16;;;;;;;;;;;;;;;19.62;49.45;94940.72;5133760;27;1023;-60
2023/10/31 11:16:51;;;;;;;;;;;;;;;19.54;47.62;94933.69;5134936;27;1154;-60
2023/10/31 11:19:17;;;;;;;;;;;;;;;19.61;47.81;94923.59;5134755;27;2009;-60
2023/10/31 11:21:58;;;;;;;;;;;;;;;19.69;48.01;94911.63;5133655;27;1060;-59
2023/10/31 11:24:36;;;;;;;;;;;;;;;19.75;49.43;94915.38;5134675;27;1016;-58
2023/10/31 11:27:03;;;;;;;;;;;;;;;19.78;50.10;94899.47;5134733;27;1032;-59
2023/10/31 11:29:33;;;;;;;;;;;;;;;19.91;49.38;94898.50;5134333;27;1039;-59
2023/10/31 11:31:59;;;;;;;;;;;;;;;20.05;49.96;94888.34;5133332;27;1325;-59
2023/10/31 11:34:29;;;;;;;;;;;;;;;20.06;49.65;94882.69;5117685;27;1212;-58
2023/10/31 11:37:14;;;;;;;;;;;;;;;20.07;48.97;94888.94;5096127;28;1017;-58
2023/10/31 11:39:40;;;;;;;;;;;;;;;20.01;47.55;94890.66;5114025;28;1087;-59
2023/10/31 11:42:16;;;;;;;;;;;;;;;20.02;48.39;94889.63;5114268;28;917;-59
2023/10/31 11:44:54;;;;;;;;;;;;;;;20.09;48.93;94882.25;5114192;28;1012;-59
2023/10/31 11:47:22;;;;;;;;;;;;;;;20.05;48.71;94869.34;5096161;28;1016;-59
2023/10/31 11:49:48;;;;;;;;;;;;;;;19.92;48.64;94853.22;5114048;28;945;-59
2023/10/31 11:52:15;;;;;;;;;;;;;;;19.88;47.91;94860.97;5113687;28;1040;-59
2023/10/31 11:54:42;;;;;;;;;;;;;;;19.95;48.52;94864.44;5114064;28;1032;-59
2023/10/31 11:57:08;;;;;;;;;;;;;;;19.97;49.08;94853.38;5113839;28;1909;-59
2023/10/31 11:59:37;;;;;;;;;;;;;;;19.89;48.48;94854.50;5113559;28;1223;-59
2023/10/31 12:02:14;;;;;;;;;;;;;;;19.91;49.26;94852.38;5114123;28;960;-60
2023/10/31 12:04:40;;;;;;;;;;;;;;;19.93;50.06;94865.75;5113672;28;1024;-59
2023/10/31 12:07:06;;;;;;;;;;;;;;;19.92;49.31;94859.50;5113676;28;1036;-59
2023/10/31 12:09:32;;;;;;;;;;;;;;;19.90;49.30;94864.31;5113523;28;1032;-59
2023/10/31 12:11:58;;;;;;;;;;;;;;;19.93;48.10;94860.31;5113915;28;1017;-59
2023/10/31 12:14:24;;;;;;;;;;;;;;;19.98;49.31;94853.16;5095601;28;972;-59
2023/10/31 12:16:50;;;;;;;;;;;;;;;19.95;49.40;94859.03;5095677;28;984;-59
2023/10/31 12:19:20;;;;;;;;;;;;;;;20.00;48.46;94861.06;5113386;28;1956;-59
2023/10/31 12:21:47;;;;;;;;;;;;;;;20.12;49.23;94859.25;5113849;28;1036;-59
2023/10/31 12:24:15;;;;;;;;;;;;;;;20.12;49.12;94863.84;5113433;28;1032;-59
2023/10/31 12:26:41;;;;;;;;;;;;;;;20.12;49.18;94845.66;5113685;28;933;-59
2023/10/31 12:29:11;;;;;;;;;;;;;;;20.12;48.55;94845.66;5113845;28;1040;-59
2023/10/31 12:31:42;;;;;;;;;;;;;;;20.27;48.06;94850.69;5095488;28;1110;-59
2023/10/31 12:34:09;;;;;;;;;;;;;;;20.44;48.56;94849.00;5113671;28;1185;-59
2023/10/31 12:36:36;;;;;;;;;;;;;;;20.61;48.31;94841.06;5113364;28;1092;-59
2023/10/31 12:39:02;;;;;;;;;;;;;;;20.72;46.13;94844.88;5113532;28;1991;-59
2023/10/31 12:41:29;;;;;;;;;;;;;;;20.82;44.84;94841.59;5116969;28;1003;-59
2023/10/31 12:43:55;;;;;;;;;;;;;;;20.98;45.81;94834.66;5117407;28;1032;-59
2023/10/31 12:46:29;;;;;;;;;;;;;;;21.05;46.72;94832.66;5117148;28;1032;-59
2023/10/31 12:48:58;;;;;;;;;;;;;;;21.09;47.08;94833.03;5117360;28;1238;-58
2023/10/31 12:51:24;;;;;;;;;;;;;;;21.16;46.82;94817.44;5117420;28;1052;-57
2023/10/31 12:53:51;;;;;;;;;;;;;;;21.20;46.73;94805.03;5099369;28;989;-58
2023/10/31 12:56:39;;;;;;;;;;;;;;;21.16;46.67;94795.69;5117063;28;1573;-59
2023/10/31 12:59:11;;;;;;;;;;;;;;;21.14;45.95;94798.63;5116832;28;1914;-59
2023/10/31 13:01:44;;;;;;;;;;;;;;;21.16;45.25;94788.34;5099308;28;1281;-59